Time;durP1;ratioP1;P1;durP2;ratioP2;P2;SDS_P1;SDS_P2;PMS_P1;PMS_P2;Temp;Humidity;BMP_temperature;BMP_pressure;BME280_temperature;BME280_humidity;BME280_pressure;Samples;Min_cycle;Max_cycle;Signal;HPM_P1;HPM_P2
2024/03/03 00:00:44;;;;;;;49.75;23.15;;;;;;;7.16;100.00;95703.53;5035582;28;20401;-85
2024/03/03 00:03:11;;;;;;;38.45;18.73;;;;;;;7.16;100.00;95699.06;5038082;28;20427;-85
2024/03/03 00:05:37;;;;;;;51.03;23.55;;;;;;;7.20;100.00;95699.34;5035109;28;20420;-87
2024/03/03 00:08:04;;;;;;;50.63;24.05;;;;;;;7.18;100.00;95691.72;5030089;28;20412;-85
2024/03/03 00:10:30;;;;;;;41.05;20.30;;;;;;;7.17;100.00;95681.44;5020894;28;20404;-85
2024/03/03 00:12:56;;;;;;;44.58;22.08;;;;;;;7.22;100.00;95682.19;5022555;28;20463;-87
2024/03/03 00:15:22;;;;;;;53.00;25.57;;;;;;;7.22;100.00;95678.78;5032981;28;20393;-86
2024/03/03 00:17:50;;;;;;;46.47;23.55;;;;;;;7.18;100.00;95669.88;5038021;28;20408;-86
2024/03/03 00:20:16;;;;;;;50.97;23.50;;;;;;;7.18;100.00;95661.97;5036746;28;20413;-86
2024/03/03 00:22:42;;;;;;;49.42;24.15;;;;;;;7.15;100.00;95667.75;5022852;28;20401;-86
2024/03/03 00:25:08;;;;;;;42.90;21.20;;;;;;;7.13;100.00;95667.28;5022146;28;20504;-87
2024/03/03 00:27:35;;;;;;;46.05;22.13;;;;;;;7.09;100.00;95655.69;5021444;28;20431;-86
2024/03/03 00:30:01;;;;;;;38.40;19.48;;;;;;;7.10;100.00;95660.69;5021704;28;20464;-87
2024/03/03 00:32:27;;;;;;;59.28;27.52;;;;;;;7.15;100.00;95652.78;5021124;28;20401;-86
2024/03/03 00:34:55;;;;;;;47.25;22.77;;;;;;;7.12;100.00;95652.53;5020988;28;20404;-87
2024/03/03 00:37:21;;;;;;;53.70;22.92;;;;;;;7.12;100.00;95647.28;5021189;28;20473;-85
2024/03/03 00:39:48;;;;;;;46.75;22.27;;;;;;;7.13;100.00;95660.16;5021354;28;20750;-85
2024/03/03 00:42:14;;;;;;;56.13;24.85;;;;;;;7.14;100.00;95658.31;5020879;28;20929;-85
2024/03/03 00:44:40;;;;;;;51.47;25.42;;;;;;;7.11;100.00;95667.53;5021688;28;20405;-87
2024/03/03 00:47:06;;;;;;;51.20;24.17;;;;;;;7.13;100.00;95662.00;5021989;28;20408;-86
2024/03/03 00:49:32;;;;;;;48.45;23.08;;;;;;;7.09;100.00;95661.75;5023299;28;20426;-86
2024/03/03 00:52:01;;;;;;;52.88;24.98;;;;;;;7.12;100.00;95663.06;5022195;28;20484;-87
2024/03/03 00:54:27;;;;;;;46.05;21.63;;;;;;;7.09;100.00;95650.44;5021474;28;20420;-87
2024/03/03 00:56:53;;;;;;;38.47;19.95;;;;;;;7.08;100.00;95647.00;5020755;28;20436;-85
2024/03/03 00:59:19;;;;;;;59.33;27.05;;;;;;;7.11;100.00;95650.97;5023088;28;20407;-86
2024/03/03 01:01:45;;;;;;;48.58;24.33;;;;;;;7.11;100.00;95645.69;5023060;28;20496;-85
2024/03/03 01:04:13;;;;;;;50.20;24.50;;;;;;;7.07;100.00;95645.44;5021865;28;20405;-87
2024/03/03 01:06:39;;;;;;;47.83;22.95;;;;;;;7.04;100.00;95639.94;5020339;28;20403;-87
2024/03/03 01:09:07;;;;;;;43.53;21.73;;;;;;;7.06;100.00;95645.72;5021151;28;20451;-87
2024/03/03 01:11:33;;;;;;;42.85;22.20;;;;;;;7.04;100.00;95650.47;5020964;28;20420;-88
2024/03/03 01:13:59;;;;;;;45.78;21.80;;;;;;;7.05;100.00;95644.16;5021478;28;20834;-87
2024/03/03 01:16:25;;;;;;;41.90;21.53;;;;;;;7.03;100.00;95641.78;5018361;28;20392;-85
2024/03/03 01:18:51;;;;;;;43.70;22.38;;;;;;;7.03;100.00;95631.28;5015911;28;20397;-85
2024/03/03 01:21:19;;;;;;;47.22;22.75;;;;;;;7.04;100.00;95635.47;5015807;28;20408;-85
2024/03/03 01:23:45;;;;;;;62.00;28.50;;;;;;;7.05;100.00;95625.75;5020813;28;20440;-87
2024/03/03 01:26:13;;;;;;;50.85;25.33;;;;;;;7.01;100.00;95609.69;5021071;28;20392;-87
2024/03/03 01:28:39;;;;;;;44.47;21.08;;;;;;;7.00;100.00;95613.38;5020983;28;20455;-87
2024/03/03 01:31:05;;;;;;;39.67;20.53;;;;;;;7.00;100.00;95606.28;5020335;28;20498;-87
2024/03/03 01:33:31;;;;;;;54.63;26.00;;;;;;;6.95;100.00;95598.44;5021885;28;20494;-87
2024/03/03 01:35:57;;;;;;;52.97;25.42;;;;;;;6.89;100.00;95596.09;5018301;28;20401;-86
2024/03/03 01:38:24;;;;;;;48.33;23.15;;;;;;;6.86;100.00;95602.69;5017943;28;20401;-85
2024/03/03 01:40:51;;;;;;;43.78;21.95;;;;;;;6.81;100.00;95596.66;5018069;28;20396;-85
2024/03/03 01:43:18;;;;;;;51.75;25.42;;;;;;;6.74;100.00;95607.47;5018030;28;20397;-85
2024/03/03 01:45:44;;;;;;;66.50;29.48;;;;;;;6.66;100.00;95604.63;5020765;28;20393;-85
2024/03/03 01:48:11;;;;;;;52.65;25.17;;;;;;;6.60;100.00;95603.84;5021412;28;20408;-83
2024/03/03 01:50:38;;;;;;;62.65;29.90;;;;;;;6.55;100.00;95604.66;5026081;28;20412;-87
2024/03/03 01:53:06;;;;;;;56.40;27.80;;;;;;;6.48;100.00;95603.34;5024754;28;20417;-87
2024/03/03 01:55:32;;;;;;;47.67;22.77;;;;;;;6.43;100.00;95604.19;5024908;28;20419;-86
2024/03/03 01:58:02;;;;;;;52.03;24.40;;;;;;;6.42;100.00;95602.59;5024256;28;20482;-86
2024/03/03 02:00:34;;;;;;;47.92;22.73;;;;;;;6.37;100.00;95596.56;5024742;28;20396;-87
2024/03/03 02:03:05;;;;;;;46.47;22.15;;;;;;;6.33;100.00;95595.53;5025428;28;20404;-87
2024/03/03 02:05:32;;;;;;;55.00;24.45;;;;;;;6.27;100.00;95586.09;5025899;28;20405;-86
2024/03/03 02:07:59;;;;;;;52.50;23.67;;;;;;;6.25;100.00;95581.09;5028340;28;20404;-86
2024/03/03 02:10:25;;;;;;;52.25;25.05;;;;;;;6.19;100.00;95585.59;5041047;28;20404;-86
2024/03/03 02:12:52;;;;;;;56.63;26.85;;;;;;;6.13;100.00;95588.50;5041212;28;20416;-85
2024/03/03 02:15:18;;;;;;;66.57;29.27;;;;;;;6.08;100.00;95599.81;5040597;28;20397;-86
2024/03/03 02:17:46;;;;;;;65.30;29.38;;;;;;;6.05;100.00;95591.66;5028762;28;20409;-86
2024/03/03 02:20:12;;;;;;;60.30;27.92;;;;;;;5.99;100.00;95590.91;5022708;28;20400;-85
2024/03/03 02:22:39;;;;;;;55.63;26.00;;;;;;;5.93;100.00;95597.22;5021663;28;20404;-85
2024/03/03 02:25:08;;;;;;;58.75;27.50;;;;;;;5.89;100.00;95598.00;5022030;28;20754;-85
2024/03/03 02:27:34;;;;;;;57.95;25.75;;;;;;;5.86;100.00;95599.28;5020445;28;20785;-85
2024/03/03 02:30:05;;;;;;;50.88;24.15;;;;;;;5.84;100.00;95598.75;5021532;28;20401;-85
2024/03/03 02:32:31;;;;;;;56.83;26.65;;;;;;;5.83;100.00;95605.84;5022000;28;20412;-85
2024/03/03 02:34:58;;;;;;;59.45;27.90;;;;;;;5.93;100.00;95605.09;5025076;28;20421;-86
2024/03/03 02:37:24;;;;;;;57.20;26.73;;;;;;;5.92;100.00;95611.38;5027531;28;20392;-86
2024/03/03 02:39:51;;;;;;;63.30;28.05;;;;;;;5.89;100.00;95596.16;5025621;28;20420;-86
2024/03/03 02:42:17;;;;;;;59.05;26.45;;;;;;;5.84;100.00;95594.31;5023903;28;20405;-86
2024/03/03 02:44:44;;;;;;;63.97;28.80;;;;;;;5.88;100.00;95585.91;5022892;28;20436;-85
2024/03/03 02:47:10;;;;;;;73.65;33.65;;;;;;;5.82;100.00;95593.78;5022728;28;20444;-86
2024/03/03 02:49:36;;;;;;;65.70;29.03;;;;;;;5.78;100.00;95595.38;5022446;28;20439;-85
2024/03/03 02:52:02;;;;;;;58.50;26.88;;;;;;;5.75;100.00;95608.22;5022919;28;20466;-86
2024/03/03 02:54:28;;;;;;;60.15;28.00;;;;;;;5.74;100.00;95602.19;5022592;28;20417;-85
2024/03/03 02:56:56;;;;;;;58.90;27.02;;;;;;;5.70;100.00;95597.72;5022643;28;20543;-84
2024/03/03 02:59:22;;;;;;;62.15;27.45;;;;;;;5.68;100.00;95603.22;5022696;28;20404;-86
2024/03/03 03:01:48;;;;;;;59.30;27.08;;;;;;;5.63;100.00;95603.25;5022036;28;20404;-86
2024/03/03 03:04:14;;;;;;;64.53;29.23;;;;;;;5.61;100.00;95604.56;5023846;28;20397;-85
2024/03/03 03:06:41;;;;;;;63.80;30.20;;;;;;;5.56;100.00;95602.72;5023831;28;20409;-87
2024/03/03 03:09:07;;;;;;;62.92;29.42;;;;;;;5.54;100.00;95601.41;5027071;28;20426;-87
2024/03/03 03:11:36;;;;;;;69.60;31.40;;;;;;;5.51;100.00;95602.69;5021507;28;20441;-86
2024/03/03 03:14:03;;;;;;;67.05;31.48;;;;;;;5.54;100.00;95604.81;5020828;28;20420;-85
2024/03/03 03:16:29;;;;;;;66.55;30.10;;;;;;;5.47;100.00;95601.66;5021398;28;20432;-85
2024/03/03 03:18:55;;;;;;;55.83;27.50;;;;;;;5.45;100.00;95612.41;5020597;28;20408;-85
2024/03/03 03:21:26;;;;;;;68.00;30.60;;;;;;;5.41;100.00;95613.97;5021160;28;20443;-87
2024/03/03 03:23:53;;;;;;;80.00;34.33;;;;;;;5.42;100.00;95605.06;5021603;28;20455;-85
2024/03/03 03:26:19;;;;;;;86.18;37.88;;;;;;;5.42;100.00;95612.94;5021379;28;20392;-85
2024/03/03 03:28:45;;;;;;;88.60;38.83;;;;;;;5.42;100.00;95620.81;5021242;28;20511;-85
2024/03/03 03:31:12;;;;;;;97.75;39.92;;;;;;;5.47;100.00;95624.50;5022363;28;20424;-84
2024/03/03 03:33:38;;;;;;;100.55;41.97;;;;;;;5.54;100.00;95614.53;5021662;28;20421;-84
2024/03/03 03:36:08;;;;;;;87.65;38.15;;;;;;;5.53;100.00;95607.69;5021285;28;20409;-84
2024/03/03 03:38:34;;;;;;;89.72;39.50;;;;;;;5.52;100.00;95612.16;5023198;28;20456;-85
2024/03/03 03:41:02;;;;;;;87.78;38.20;;;;;;;5.50;100.00;95602.97;5020513;28;20762;-85
2024/03/03 03:43:28;;;;;;;92.38;37.65;;;;;;;5.47;100.00;95606.91;5020686;28;20416;-84
2024/03/03 03:45:54;;;;;;;87.15;37.85;;;;;;;5.48;100.00;95615.56;5035345;22;20463;-85
2024/03/03 03:48:23;;;;;;;85.75;37.35;;;;;;;5.42;100.00;95609.50;5018898;28;20428;-85
2024/03/03 03:50:49;;;;;;;81.78;35.40;;;;;;;5.39;100.00;95616.09;5017250;28;20436;-85
2024/03/03 03:53:15;;;;;;;81.38;34.08;;;;;;;5.34;100.00;95610.81;5017083;28;20420;-84
2024/03/03 03:55:41;;;;;;;85.55;35.08;;;;;;;5.30;100.00;95609.78;5018530;28;20401;-84
2024/03/03 03:58:07;;;;;;;73.88;34.08;;;;;;;5.29;100.00;95612.66;5026279;28;20400;-85
2024/03/03 04:00:34;;;;;;;64.43;29.90;;;;;;;5.23;100.00;95600.59;5021187;28;20455;-86
2024/03/03 04:03:00;;;;;;;75.55;34.03;;;;;;;5.21;100.00;95607.94;5021574;28;20743;-86
2024/03/03 04:05:27;;;;;;;76.93;34.53;;;;;;;5.19;100.00;95607.41;5021929;28;20392;-87
2024/03/03 04:07:53;;;;;;;81.00;34.13;;;;;;;5.16;100.00;95600.06;5021842;28;20424;-86
2024/03/03 04:10:19;;;;;;;75.90;33.97;;;;;;;5.14;100.00;95600.31;5022742;28;20480;-86
2024/03/03 04:12:46;;;;;;;81.47;35.60;;;;;;;5.16;100.00;95600.06;5023282;28;20405;-86
2024/03/03 04:15:13;;;;;;;82.00;35.50;;;;;;;5.16;100.00;95600.06;5024248;28;20511;-86
2024/03/03 04:17:40;;;;;;;78.13;33.42;;;;;;;5.14;100.00;95602.94;5024290;28;20440;-84
2024/03/03 04:20:07;;;;;;;83.90;35.90;;;;;;;5.16;100.00;95597.44;5019520;28;20479;-86
2024/03/03 04:22:37;;;;;;;77.80;33.72;;;;;;;5.17;100.00;95596.38;5017837;28;20749;-84
2024/03/03 04:25:04;;;;;;;72.72;32.97;;;;;;;5.17;100.00;95597.19;5017228;28;20408;-85
2024/03/03 04:27:30;;;;;;;80.35;34.97;;;;;;;5.16;100.00;95597.44;5015981;28;20401;-85
2024/03/03 04:29:56;;;;;;;78.03;33.53;;;;;;;5.13;100.00;95598.72;5017540;28;20416;-86
2024/03/03 04:32:23;;;;;;;60.28;27.27;;;;;;;5.10;100.00;95601.91;5017696;28;20893;-86
2024/03/03 04:34:50;;;;;;;67.05;30.08;;;;;;;5.06;100.00;95591.13;5017501;28;20416;-84
2024/03/03 04:37:16;;;;;;;67.30;29.23;;;;;;;5.03;100.00;95590.88;5017127;28;20476;-86
2024/03/03 04:39:44;;;;;;;54.15;25.08;;;;;;;5.00;100.00;95589.53;5017313;28;20404;-85
2024/03/03 04:42:10;;;;;;;42.50;21.33;;;;;;;4.97;100.00;95592.66;5016915;28;20447;-85
2024/03/03 04:44:36;;;;;;;55.05;26.58;;;;;;;4.95;100.00;95586.13;5017042;28;20495;-85
2024/03/03 04:47:03;;;;;;;66.80;29.90;;;;;;;4.96;100.00;95591.09;5017066;28;20436;-85
2024/03/03 04:49:29;;;;;;;75.13;31.88;;;;;;;4.91;100.00;95591.09;5016303;28;20392;-85
2024/03/03 04:51:55;;;;;;;67.25;30.50;;;;;;;4.92;100.00;95597.13;5015311;28;20424;-84
2024/03/03 04:54:21;;;;;;;76.07;32.33;;;;;;;4.93;100.00;95596.88;5015401;28;20413;-84
2024/03/03 04:56:49;;;;;;;68.72;30.33;;;;;;;4.91;100.00;95611.28;5019923;28;20408;-85
2024/03/03 04:59:15;;;;;;;59.30;27.80;;;;;;;4.88;100.00;95596.88;5021746;28;20424;-85
2024/03/03 05:01:42;;;;;;;58.15;26.92;;;;;;;4.87;100.00;95592.66;5022663;28;20425;-85
2024/03/03 05:04:09;;;;;;;69.38;29.55;;;;;;;4.89;100.00;95595.00;5022017;28;20464;-86
2024/03/03 05:06:44;;;;;;;67.22;27.98;;;;;;;4.90;100.00;95594.75;5022087;28;20397;-87
2024/03/03 05:09:10;;;;;;;73.63;32.92;;;;;;;4.92;100.00;95607.59;5021681;28;20798;-87
2024/03/03 05:11:37;;;;;;;68.57;28.65;;;;;;;4.90;100.00;95607.06;5021712;28;20416;-86
2024/03/03 05:14:05;;;;;;;55.55;24.90;;;;;;;4.87;100.00;95611.00;5028071;28;20421;-85
2024/03/03 05:16:31;;;;;;;50.67;22.77;;;;;;;4.85;100.00;95605.22;5020399;28;20885;-85
2024/03/03 05:18:57;;;;;;;59.17;25.92;;;;;;;4.82;100.00;95604.94;5019565;28;20443;-85
2024/03/03 05:21:23;;;;;;;58.20;27.55;;;;;;;4.78;100.00;95612.56;5020370;28;20404;-85
2024/03/03 05:23:49;;;;;;;66.60;30.40;;;;;;;4.77;100.00;95612.81;5019599;28;20423;-85
2024/03/03 05:26:16;;;;;;;75.50;30.58;;;;;;;4.72;100.00;95616.22;5020064;28;20487;-85
2024/03/03 05:28:45;;;;;;;67.93;30.20;;;;;;;4.66;100.00;95623.25;5021217;28;20401;-85
2024/03/03 05:31:13;;;;;;;66.72;30.13;;;;;;;4.64;100.00;95622.72;5020924;28;20860;-85
2024/03/03 05:33:39;;;;;;;73.43;32.33;;;;;;;4.68;100.00;95612.50;5020347;28;20443;-85
2024/03/03 05:36:05;;;;;;;75.63;31.20;;;;;;;4.62;100.00;95627.44;5020123;28;20388;-84
2024/03/03 05:38:32;;;;;;;55.40;26.67;;;;;;;4.59;100.00;95616.66;5021283;28;20404;-85
2024/03/03 05:40:58;;;;;;;58.63;26.33;;;;;;;4.57;100.00;95621.41;5021314;28;20396;-85
2024/03/03 05:43:24;;;;;;;54.53;25.27;;;;;;;4.54;100.00;95617.44;5021625;28;20404;-87
2024/03/03 05:45:50;;;;;;;70.00;31.52;;;;;;;4.54;100.00;95617.44;5024258;28;20397;-87
2024/03/03 05:48:18;;;;;;;64.50;28.80;;;;;;;4.52;100.00;95618.72;5025007;28;20877;-87
2024/03/03 05:50:45;;;;;;;66.20;28.77;;;;;;;4.50;100.00;95613.78;5026077;28;20424;-87
2024/03/03 05:53:11;;;;;;;73.07;30.17;;;;;;;4.48;100.00;95608.00;5025509;28;20420;-87
2024/03/03 05:55:39;;;;;;;63.63;26.92;;;;;;;4.47;100.00;95609.03;5024782;28;20431;-85
2024/03/03 05:58:05;;;;;;;77.45;33.28;;;;;;;4.48;100.00;95615.84;5020131;28;20400;-85
2024/03/03 06:00:31;;;;;;;71.23;30.87;;;;;;;4.45;100.00;95605.88;5019433;28;20404;-85
2024/03/03 06:02:57;;;;;;;72.88;29.75;;;;;;;4.43;100.00;95612.44;5019377;28;20498;-85
2024/03/03 06:05:25;;;;;;;63.83;28.25;;;;;;;4.43;100.00;95610.59;5021751;28;20491;-85
2024/03/03 06:07:51;;;;;;;69.28;29.58;;;;;;;4.43;100.00;95617.66;5021846;28;20471;-85
2024/03/03 06:10:17;;;;;;;69.50;29.38;;;;;;;4.44;100.00;95621.84;5020218;28;20801;-85
2024/03/03 06:12:45;;;;;;;79.47;32.47;;;;;;;4.41;100.00;95620.53;5018676;28;20893;-85
2024/03/03 06:15:11;;;;;;;68.83;29.40;;;;;;;4.47;100.00;95619.50;5018350;28;20541;-85
2024/03/03 06:17:38;;;;;;;84.45;33.58;;;;;;;4.51;100.00;95612.69;5018663;28;20408;-87
2024/03/03 06:20:06;;;;;;;71.55;32.40;;;;;;;4.57;100.00;95611.69;5017761;28;20393;-87
2024/03/03 06:22:34;;;;;;;75.95;33.08;;;;;;;4.63;100.00;95609.88;5017289;28;20913;-86
2024/03/03 06:25:00;;;;;;;78.57;33.47;;;;;;;4.69;100.00;95614.09;5017253;28;20562;-87
2024/03/03 06:27:26;;;;;;;79.20;33.35;;;;;;;4.74;100.00;95608.06;5019070;28;20471;-87
2024/03/03 06:29:52;;;;;;;79.33;33.77;;;;;;;4.81;100.00;95613.88;5022374;28;20499;-86
2024/03/03 06:32:18;;;;;;;67.30;30.90;;;;;;;4.88;100.00;95620.47;5021558;28;20393;-87
2024/03/03 06:34:45;;;;;;;59.30;27.42;;;;;;;4.96;100.00;95627.78;5021291;28;20427;-85
2024/03/03 06:37:14;;;;;;;68.07;30.67;;;;;;;5.05;100.00;95631.50;5021555;28;20404;-87
2024/03/03 06:39:44;;;;;;;65.53;29.27;;;;;;;5.16;100.00;95631.53;5021683;28;20397;-86
2024/03/03 06:42:10;;;;;;;57.80;26.60;;;;;;;5.26;100.00;95634.94;5028325;28;20411;-87
2024/03/03 06:44:39;;;;;;;57.53;27.50;;;;;;;5.41;100.00;95628.97;5033270;28;20835;-88
2024/03/03 06:47:06;;;;;;;72.55;31.70;;;;;;;5.51;100.00;95622.91;5029473;28;20400;-88
2024/03/03 06:49:32;;;;;;;55.40;26.13;;;;;;;5.63;100.00;95623.47;5028756;28;20400;-88
2024/03/03 06:51:58;;;;;;;74.45;31.95;;;;;;;5.72;100.00;95625.28;5029133;28;20432;-87
2024/03/03 06:54:24;;;;;;;65.53;29.43;;;;;;;5.84;100.00;95615.31;5031433;28;20424;-88
2024/03/03 06:56:51;;;;;;;66.68;30.83;;;;;;;5.92;100.00;95615.84;5030567;28;20431;-88
2024/03/03 06:59:17;;;;;;;55.53;25.98;;;;;;;6.01;100.00;95606.41;5011484;28;20561;-88
2024/03/03 07:01:44;;;;;;;49.05;24.42;;;;;;;6.12;100.00;95615.81;5087364;22;20465;-86
2024/03/03 07:04:20;;;;;;;46.55;22.75;;;;;;;6.24;100.00;95608.41;5040742;28;20434;-85
2024/03/03 07:06:47;;;;;;;40.65;19.70;;;;;;;6.35;100.00;95617.06;5039696;28;20407;-86
2024/03/03 07:09:13;;;;;;;40.83;20.87;;;;;;;6.44;100.00;95616.25;5044116;28;20395;-88
2024/03/03 07:11:39;;;;;;;46.55;21.67;;;;;;;6.54;100.00;95626.72;5050420;28;20410;-87
2024/03/03 07:14:06;;;;;;;39.47;19.52;;;;;;;6.67;100.00;95621.97;5052336;28;20439;-87
2024/03/03 07:16:32;;;;;;;34.85;18.15;;;;;;;6.77;100.00;95619.28;5056076;28;20421;-87
2024/03/03 07:18:59;;;;;;;35.50;18.17;;;;;;;6.88;100.00;95615.56;5058599;28;20406;-85
2024/03/03 07:21:25;;;;;;;32.75;17.60;;;;;;;6.98;100.00;95612.88;5053065;28;20435;-86
2024/03/03 07:23:51;;;;;;;34.13;17.40;;;;;;;7.07;100.00;95619.13;5045048;28;20399;-82
2024/03/03 07:26:17;;;;;;;33.22;17.17;;;;;;;7.14;100.00;95610.97;5049906;28;20856;-85
2024/03/03 07:28:44;;;;;;;30.27;15.30;;;;;;;7.22;100.00;95615.63;5041205;28;20395;-83
2024/03/03 07:31:11;;;;;;;33.47;17.20;;;;;;;7.31;100.00;95614.00;5042500;28;20550;-83
2024/03/03 07:33:38;;;;;;;34.70;17.67;;;;;;;7.37;100.00;95608.41;5044817;28;20445;-85
2024/03/03 07:36:05;;;;;;;31.40;16.15;;;;;;;7.45;100.00;95616.78;5046656;28;20403;-86
2024/03/03 07:38:31;;;;;;;30.35;15.73;;;;;;;7.48;100.00;95606.50;5051833;28;20433;-87
2024/03/03 07:40:58;;;;;;;30.60;15.52;;;;;;;7.51;100.00;95603.34;5046533;28;20396;-86
2024/03/03 07:43:25;;;;;;;31.42;16.52;;;;;;;7.55;100.00;95593.03;5052335;28;20411;-83
2024/03/03 07:45:52;;;;;;;28.60;15.90;;;;;;;7.58;100.00;95609.09;5058023;28;20405;-85
2024/03/03 07:48:19;;;;;;;30.20;15.73;;;;;;;7.62;100.00;95599.56;5048215;28;20403;-85
2024/03/03 07:50:45;;;;;;;32.67;16.87;;;;;;;7.64;100.00;95605.34;5045120;28;20503;-85
2024/03/03 07:53:12;;;;;;;41.50;21.20;;;;;;;7.67;100.00;95614.53;5044348;28;20392;-85
2024/03/03 07:55:38;;;;;;;49.20;23.17;;;;;;;7.67;100.00;95603.97;5044580;28;20430;-82
2024/03/03 07:58:04;;;;;;;50.60;25.83;;;;;;;7.68;100.00;95598.44;5041308;28;20759;-82
2024/03/03 08:00:33;;;;;;;46.13;23.00;;;;;;;7.70;100.00;95583.16;5039448;28;20407;-85
2024/03/03 08:03:00;;;;;;;37.60;19.65;;;;;;;7.74;100.00;95589.44;5040466;28;20414;-84
2024/03/03 08:05:28;;;;;;;35.42;19.10;;;;;;;7.80;100.00;95600.75;5039999;28;20426;-84
2024/03/03 08:07:54;;;;;;;30.75;17.42;;;;;;;7.85;100.00;95592.78;5040323;28;20399;-85
2024/03/03 08:10:20;;;;;;;31.87;16.07;;;;;;;7.92;100.00;95597.72;5040891;28;20866;-84
2024/03/03 08:12:46;;;;;;;28.95;15.02;;;;;;;7.98;100.00;95596.59;5043454;28;20396;-85
2024/03/03 08:15:12;;;;;;;30.33;15.83;;;;;;;8.02;100.00;95589.75;5043731;28;20522;-84
2024/03/03 08:17:39;;;;;;;27.73;15.27;;;;;;;8.07;100.00;95589.69;5023273;28;20428;-82
2024/03/03 08:20:06;;;;;;;33.38;16.80;;;;;;;8.13;100.00;95591.19;5033142;28;20405;-80
2024/03/03 08:22:33;;;;;;;30.95;16.50;;;;;;;8.17;100.00;95597.50;5048427;28;20419;-79
2024/03/03 08:25:02;;;;;;;32.63;16.40;;;;;;;8.22;100.00;95586.88;5046952;28;20415;-81
2024/03/03 08:27:28;;;;;;;41.40;21.10;;;;;;;8.22;100.00;95588.75;5040618;28;20407;-82
2024/03/03 08:29:55;;;;;;;37.97;19.77;;;;;;;8.29;100.00;95583.91;5042763;28;20428;-85
2024/03/03 08:32:23;;;;;;;56.10;28.98;;;;;;;8.25;100.00;95583.72;5039904;28;20399;-82
2024/03/03 08:34:49;;;;;;;43.15;22.58;;;;;;;8.33;100.00;95574.44;5036389;28;20419;-83
2024/03/03 08:37:15;;;;;;;34.30;19.50;;;;;;;8.42;100.00;95578.03;5047481;28;20485;-81
2024/03/03 08:39:43;;;;;;;32.27;16.80;;;;;;;8.52;100.00;95572.63;5045309;28;20490;-82
2024/03/03 08:42:09;;;;;;;27.67;15.57;;;;;;;8.66;100.00;95583.25;5045690;28;20395;-85
2024/03/03 08:44:35;;;;;;;30.60;16.65;;;;;;;8.75;100.00;95585.00;5043667;28;20418;-85
2024/03/03 08:47:01;;;;;;;32.50;17.73;;;;;;;8.86;100.00;95591.72;5043632;28;20399;-86
2024/03/03 08:49:27;;;;;;;27.98;15.57;;;;;;;8.94;100.00;95582.38;5042726;28;20410;-87
2024/03/03 08:51:54;;;;;;;32.08;17.88;;;;;;;8.99;100.00;95582.31;5044851;28;20407;-85
2024/03/03 08:54:20;;;;;;;31.37;16.93;;;;;;;9.05;100.00;95580.38;5048067;28;20414;-84
2024/03/03 08:56:47;;;;;;;31.33;17.40;;;;;;;9.08;100.00;95577.19;5050599;28;20417;-83
2024/03/03 08:59:13;;;;;;;31.05;16.92;;;;;;;9.11;100.00;95585.31;5047771;28;20419;-85
2024/03/03 09:01:39;;;;;;;29.70;15.75;;;;;;;9.16;100.00;95571.28;5045745;28;20403;-80
2024/03/03 09:04:06;;;;;;;27.30;14.70;;;;;;;9.20;100.00;95577.53;5045892;28;20494;-85
2024/03/03 09:06:32;;;;;;;27.02;15.25;;;;;;;9.25;100.00;95574.81;5044034;28;20415;-82
2024/03/03 09:08:58;;;;;;;24.10;13.85;;;;;;;9.30;100.00;95572.13;5041138;28;20407;-83
2024/03/03 09:11:24;;;;;;;22.88;12.75;;;;;;;9.37;100.00;95569.09;5041772;28;20407;-80
2024/03/03 09:13:52;;;;;;;25.42;14.25;;;;;;;9.41;100.00;95573.50;5045189;28;20418;-78
2024/03/03 09:16:18;;;;;;;28.55;15.25;;;;;;;9.48;100.00;95568.66;5040337;28;20410;-82
2024/03/03 09:18:44;;;;;;;37.33;19.27;;;;;;;9.53;100.00;95565.94;5041825;28;20407;-86
2024/03/03 09:21:10;;;;;;;27.23;15.07;;;;;;;9.61;100.00;95564.50;5041578;28;20401;-83
2024/03/03 09:23:38;;;;;;;30.02;15.40;;;;;;;9.66;100.00;95565.19;5048745;28;20399;-86
2024/03/03 09:26:04;;;;;;;27.02;15.25;;;;;;;9.75;100.00;95567.19;5052798;28;20572;-85
2024/03/03 09:28:31;;;;;;;38.03;19.90;;;;;;;9.79;100.00;95568.94;5051529;28;20395;-85
2024/03/03 09:30:58;;;;;;;36.78;20.00;;;;;;;9.80;100.00;95577.66;5047574;28;20395;-84
2024/03/03 09:33:25;;;;;;;36.53;19.50;;;;;;;9.88;100.00;95567.22;5040946;28;20551;-84
2024/03/03 09:35:52;;;;;;;26.58;14.85;;;;;;;10.01;100.00;95577.03;5041065;28;20407;-83
2024/03/03 09:38:18;;;;;;;45.10;23.93;;;;;;;10.04;100.00;95573.81;5041688;28;20487;-84
2024/03/03 09:43:27;;;;;;;39.37;20.73;;;;;;;10.33;100.00;95567.50;5004468;28;20603;-83
2024/03/03 09:45:53;;;;;;;30.52;17.58;;;;;;;10.55;100.00;95572.88;5025852;28;20810;-84
2024/03/03 09:48:22;;;;;;;31.08;17.42;;;;;;;10.74;100.00;95568.28;5026371;28;20399;-86
2024/03/03 09:50:50;;;;;;;38.17;21.80;;;;;;;11.10;100.00;95557.72;5029035;28;20439;-84
2024/03/03 09:53:17;;;;;;;41.40;21.00;;;;;;;11.31;100.00;95565.19;5015747;28;20403;-80
2024/03/03 09:55:44;;;;;;;31.38;17.33;;;;;;;11.59;100.00;95567.44;5005983;28;20410;-81
2024/03/03 09:58:12;;;;;;;29.63;16.67;;;;;;;12.00;100.00;95564.63;5006656;28;20395;-80
2024/03/03 10:00:38;;;;;;;28.10;16.58;;;;;;;12.35;100.00;95557.59;5004544;28;20553;-83
2024/03/03 10:03:07;;;;;;;29.33;17.00;;;;;;;13.09;100.00;95554.16;5005030;28;20780;-81
2024/03/03 10:05:39;;;;;;;29.23;16.73;;;;;;;13.59;100.00;95557.19;5011305;28;20405;-81
2024/03/03 10:08:09;;;;;;;28.13;15.35;;;;;;;14.12;100.00;95556.78;5029027;28;20416;-83
2024/03/03 10:10:42;;;;;;;23.65;13.52;;;;;;;14.48;100.00;95547.59;5029143;28;20828;-84
2024/03/03 10:13:11;;;;;;;23.42;13.65;;;;;;;14.83;100.00;95545.50;5027439;28;20392;-83
2024/03/03 10:15:41;;;;;;;22.80;12.60;;;;;;;15.23;100.00;95554.66;5026208;28;20885;-83
2024/03/03 10:18:08;;;;;;;25.03;14.83;;;;;;;15.44;100.00;95552.75;5026165;28;20396;-82
2024/03/03 10:20:36;;;;;;;29.63;17.07;;;;;;;15.61;100.00;95553.75;5026259;28;20413;-84
2024/03/03 10:23:02;;;;;;;31.48;16.13;;;;;;;15.55;100.00;95555.84;5024994;28;20484;-82
2024/03/03 10:25:30;;;;;;;28.35;15.82;;;;;;;15.90;100.00;95548.31;5029333;28;20417;-83
2024/03/03 10:28:12;;;;;;;29.17;16.73;;;;;;;16.53;100.00;95541.63;5028831;28;20396;-83
2024/03/03 10:30:39;;;;;;;26.55;14.65;;;;;;;16.86;100.00;95546.88;5031690;28;20402;-83
2024/03/03 10:33:06;;;;;;;18.20;11.13;;;;;;;17.35;100.00;95542.22;5033301;28;20409;-84
2024/03/03 10:35:33;;;;;;;17.55;10.85;;;;;;;17.71;100.00;95544.03;5035367;28;20443;-81
2024/03/03 10:38:01;;;;;;;18.60;10.32;;;;;;;18.00;100.00;95544.78;5034971;28;20385;-85
2024/03/03 10:40:28;;;;;;;15.13;9.02;;;;;;;18.12;100.00;95544.69;5038631;28;20420;-83
2024/03/03 10:42:57;;;;;;;15.63;9.20;;;;;;;18.03;100.00;95547.56;5027558;28;20418;-84
2024/03/03 10:45:24;;;;;;;15.88;9.20;;;;;;;17.91;100.00;95544.91;5030195;28;20425;-84
2024/03/03 10:47:50;;;;;;;12.85;8.02;;;;;;;17.74;100.00;95540.66;5029717;28;20416;-83
2024/03/03 10:50:18;;;;;;;14.95;8.57;;;;;;;17.57;100.00;95538.25;5027657;28;20436;-84
2024/03/03 10:52:45;;;;;;;12.82;7.75;;;;;;;17.38;100.00;95540.75;5029108;28;20420;-87
2024/03/03 10:55:14;;;;;;;21.17;12.85;;;;;;;17.10;100.00;95537.25;5021958;28;20445;-84
2024/03/03 10:57:45;;;;;;;15.80;10.18;;;;;;;17.06;100.00;95537.16;5027204;28;20401;-84
2024/03/03 11:00:22;;;;;;;14.45;8.82;;;;;;;17.08;100.00;95536.81;5029111;28;20420;-82
2024/03/03 11:02:51;;;;;;;11.70;7.63;;;;;;;17.23;100.00;95539.56;5018846;28;20397;-85
2024/03/03 11:05:17;;;;;;;17.98;11.00;;;;;;;17.17;100.00;95529.44;5027598;28;20412;-86
2024/03/03 11:07:44;;;;;;;15.23;9.10;;;;;;;17.06;100.00;95523.81;5021610;28;20414;-84
2024/03/03 11:10:13;;;;;;;12.80;8.48;;;;;;;17.03;100.00;95521.78;5021942;28;20405;-84
2024/03/03 11:12:45;;;;;;;12.32;7.40;;;;;;;17.10;100.00;95521.22;5027164;28;20997;-85
2024/03/03 11:15:16;;;;;;;11.30;7.37;;;;;;;17.25;100.00;95513.28;5017693;28;20428;-84
2024/03/03 11:17:47;;;;;;;10.67;7.33;;;;;;;17.49;100.00;95515.09;5030440;28;20408;-83